createdAt,value
2019-05-16T00:02:01.278Z,10.28
2019-05-16T00:04:31.402Z,10.21
2019-05-16T00:07:01.021Z,10.03
2019-05-16T00:09:30.662Z,10.10
2019-05-16T00:12:00.444Z,9.95
2019-05-16T00:14:30.077Z,9.88
2019-05-16T00:16:59.841Z,10.01
2019-05-16T00:19:29.472Z,9.98
2019-05-16T00:21:59.086Z,9.90
2019-05-16T00:24:29.182Z,9.93
2019-05-16T00:26:58.991Z,9.94
2019-05-16T00:29:28.609Z,10.03
2019-05-16T00:31:58.254Z,9.99
2019-05-16T00:34:28.069Z,9.74
2019-05-16T00:36:58.175Z,9.66
2019-05-16T00:39:28.251Z,9.60
2019-05-16T00:41:58.357Z,9.59
2019-05-16T00:44:28.292Z,9.56
2019-05-16T00:46:58.103Z,9.49
2019-05-16T00:49:28.121Z,9.32
2019-05-16T00:51:58.470Z,9.31
2019-05-16T00:54:28.232Z,9.23
2019-05-16T00:56:59.149Z,9.17
2019-05-16T00:59:29.685Z,9.16
2019-05-16T01:01:59.297Z,9.14
2019-05-16T01:04:28.945Z,9.18
2019-05-16T01:07:01.723Z,9.20
2019-05-16T01:09:29.921Z,9.14
2019-05-16T01:11:59.667Z,9.05
2019-05-16T01:14:29.311Z,8.98
2019-05-16T01:16:59.100Z,8.92
2019-05-16T01:19:28.734Z,8.81
2019-05-16T01:21:58.988Z,8.58
2019-05-16T01:24:29.254Z,8.62
2019-05-16T01:26:58.996Z,8.68
2019-05-16T01:29:28.680Z,8.62
2019-05-16T01:31:58.976Z,8.56
2019-05-16T01:34:28.808Z,8.42
2019-05-16T01:36:58.979Z,8.36
2019-05-16T01:39:29.271Z,8.38
2019-05-16T01:41:58.911Z,8.43
2019-05-16T01:44:28.877Z,8.40
2019-05-16T01:46:58.761Z,8.35
2019-05-16T01:49:28.401Z,8.33
2019-05-16T01:51:58.111Z,8.31
2019-05-16T01:54:28.299Z,8.21
2019-05-16T01:56:59.478Z,8.15
2019-05-16T01:59:29.334Z,8.17
2019-05-16T02:02:00.943Z,8.14
2019-05-16T02:04:30.307Z,8.17
2019-05-16T02:06:59.916Z,8.09
2019-05-16T02:09:29.567Z,8.12
2019-05-16T02:11:59.180Z,8.15
2019-05-16T02:14:28.824Z,8.04
2019-05-16T02:16:58.503Z,8.02
2019-05-16T02:19:28.145Z,7.98
2019-05-16T02:21:59.629Z,7.89
2019-05-16T02:24:29.128Z,7.91
2019-05-16T02:26:59.113Z,7.77
2019-05-16T02:29:29.858Z,7.76
2019-05-16T02:32:02.062Z,7.79
2019-05-16T02:34:30.967Z,7.28
2019-05-16T02:37:18.376Z,7.40
2019-05-16T02:39:32.008Z,7.43
2019-05-16T02:42:01.715Z,7.38
2019-05-16T02:44:32.158Z,7.34
2019-05-16T02:47:02.030Z,7.31
2019-05-16T02:49:34.224Z,7.33
2019-05-16T02:52:02.975Z,7.41
2019-05-16T02:54:32.654Z,7.46
2019-05-16T02:57:02.302Z,7.52
2019-05-16T02:59:31.907Z,7.44
2019-05-16T03:02:01.555Z,7.40
2019-05-16T03:04:31.194Z,7.50
2019-05-16T03:07:02.316Z,7.50
2019-05-16T03:09:33.044Z,7.49
2019-05-16T03:12:03.980Z,7.54
2019-05-16T03:14:35.018Z,7.50
2019-05-16T03:17:06.237Z,7.44
2019-05-16T03:19:37.487Z,7.41
2019-05-16T03:22:07.635Z,7.38
2019-05-16T03:24:37.270Z,7.39
2019-05-16T03:27:06.880Z,7.40
2019-05-16T03:29:36.535Z,7.47
2019-05-16T03:32:06.145Z,7.26
2019-05-16T03:34:35.765Z,7.08
2019-05-16T03:37:05.590Z,7.13
2019-05-16T03:39:35.265Z,7.21
2019-05-16T03:42:04.973Z,7.14
2019-05-16T03:44:34.573Z,7.20
2019-05-16T03:47:04.221Z,7.23
2019-05-16T03:49:33.826Z,7.20
2019-05-16T03:52:03.477Z,7.18
2019-05-16T03:54:33.080Z,7.15
2019-05-16T03:57:02.734Z,7.18
2019-05-16T03:59:32.345Z,7.17
2019-05-16T04:02:01.949Z,7.13
2019-05-16T04:04:31.656Z,7.07
2019-05-16T04:07:01.628Z,6.96
2019-05-16T04:09:31.707Z,6.95
2019-05-16T04:12:02.211Z,7.03
2019-05-16T04:14:31.869Z,6.90
2019-05-16T04:17:01.737Z,6.57
2019-05-16T04:19:31.681Z,6.80
2019-05-16T04:22:01.635Z,6.40
2019-05-16T04:24:31.789Z,6.47
2019-05-16T04:27:01.634Z,6.64
2019-05-16T04:29:31.892Z,6.80
2019-05-16T04:32:01.888Z,6.89
2019-05-16T04:34:31.831Z,6.89
2019-05-16T04:37:01.489Z,6.90
2019-05-16T04:39:32.128Z,6.99
2019-05-16T04:42:02.063Z,7.00
2019-05-16T04:44:31.728Z,6.99
2019-05-16T04:47:01.822Z,6.93
2019-05-16T04:49:32.192Z,6.54
2019-05-16T04:52:01.946Z,6.76
2019-05-16T04:54:31.560Z,6.83
2019-05-16T04:57:01.644Z,6.76
2019-05-16T04:59:31.506Z,6.78
2019-05-16T05:02:02.038Z,6.79
2019-05-16T05:04:32.142Z,6.83
2019-05-16T05:07:01.752Z,6.76
2019-05-16T05:09:31.866Z,6.71
2019-05-16T05:12:04.597Z,6.75
2019-05-16T05:14:33.049Z,6.84
2019-05-16T05:17:05.360Z,6.60
2019-05-16T05:19:35.349Z,6.73
2019-05-16T05:22:04.962Z,6.76
2019-05-16T05:24:34.572Z,6.32
2019-05-16T05:27:04.283Z,6.50
2019-05-16T05:29:33.897Z,6.45
2019-05-16T05:32:05.142Z,6.30
2019-05-16T05:34:35.015Z,6.52
2019-05-16T05:37:04.655Z,6.40
2019-05-16T05:39:34.262Z,6.48
2019-05-16T05:42:03.904Z,6.22
2019-05-16T05:44:33.511Z,6.35
2019-05-16T05:47:03.180Z,6.46
2019-05-16T05:49:32.780Z,6.44
2019-05-16T05:52:02.532Z,6.65
2019-05-16T05:54:32.170Z,6.69
2019-05-16T05:57:01.783Z,6.52
2019-05-16T05:59:31.492Z,6.84
2019-05-16T06:02:01.130Z,7.02
2019-05-16T06:04:30.741Z,7.15
2019-05-16T06:07:01.225Z,7.24
2019-05-16T06:09:33.158Z,7.27
2019-05-16T06:12:03.064Z,7.37
2019-05-16T06:14:32.802Z,7.43
2019-05-16T06:17:02.411Z,7.52
2019-05-16T06:19:32.053Z,7.50
2019-05-16T06:22:01.806Z,7.48
2019-05-16T06:24:31.508Z,7.49
2019-05-16T06:27:01.128Z,7.55
2019-05-16T06:29:31.137Z,7.62
2019-05-16T06:32:00.900Z,7.77
2019-05-16T06:34:30.500Z,7.90
2019-05-16T06:37:00.622Z,8.05
2019-05-16T06:39:41.281Z,8.13
2019-05-16T06:42:01.888Z,8.16
2019-05-16T06:44:31.498Z,8.21
2019-05-16T06:47:15.816Z,8.34
2019-05-16T06:49:32.484Z,8.32
2019-05-16T06:52:02.213Z,8.44
2019-05-16T06:54:31.831Z,8.54
2019-05-16T06:57:01.447Z,8.58
2019-05-16T06:59:31.087Z,8.69
2019-05-16T07:02:00.697Z,8.82
2019-05-16T07:04:30.591Z,8.89
2019-05-16T07:07:03.019Z,8.90
2019-05-16T07:09:31.684Z,8.99
2019-05-16T07:12:01.292Z,9.06
2019-05-16T07:14:31.436Z,9.12
2019-05-16T07:17:01.314Z,9.08
2019-05-16T07:19:30.974Z,9.15
2019-05-16T07:22:00.855Z,9.20
2019-05-16T07:24:30.717Z,9.28
2019-05-16T07:27:00.480Z,9.38
2019-05-16T07:29:30.817Z,9.45
2019-05-16T07:32:01.336Z,9.50
2019-05-16T07:34:31.271Z,9.54
2019-05-16T07:37:00.972Z,9.58
2019-05-16T07:39:30.823Z,9.70
2019-05-16T07:42:00.614Z,9.65
2019-05-16T07:44:30.962Z,9.68
2019-05-16T07:47:01.269Z,9.81
2019-05-16T07:49:31.011Z,9.89
2019-05-16T07:52:00.807Z,9.99
2019-05-16T07:54:34.444Z,10.01
2019-05-16T07:57:16.184Z,10.09
2019-05-16T07:59:33.290Z,10.15
2019-05-16T08:02:02.906Z,10.19
2019-05-16T08:04:32.572Z,10.23
2019-05-16T08:07:05.287Z,10.26
2019-05-16T08:09:33.573Z,10.31
2019-05-16T08:12:05.904Z,10.43
2019-05-16T08:14:35.244Z,10.44
2019-05-16T08:17:05.105Z,10.49
2019-05-16T08:19:34.738Z,10.57
2019-05-16T08:22:04.460Z,10.51
2019-05-16T08:27:05.513Z,10.72
2019-05-16T08:29:35.141Z,10.81
2019-05-16T08:32:04.923Z,10.81
2019-05-16T08:34:34.538Z,10.95
2019-05-16T08:37:04.860Z,10.89
2019-05-16T08:39:34.488Z,10.85
2019-05-16T08:42:08.315Z,10.87
2019-05-16T08:44:35.624Z,10.86
2019-05-16T08:49:36.749Z,10.90
2019-05-16T08:52:06.670Z,10.98
2019-05-16T08:54:36.287Z,11.08
2019-05-16T08:57:22.964Z,11.14
2019-05-16T08:59:37.545Z,11.17
2019-05-16T09:02:11.998Z,11.14
2019-05-16T09:04:43.429Z,11.13
2019-05-16T09:07:12.644Z,11.21
2019-05-16T09:09:48.514Z,11.29
2019-05-16T09:10:21.223Z,10.92
2019-05-16T09:10:31.318Z,10.62
2019-05-16T09:12:12.745Z,11.37
2019-05-16T09:14:42.398Z,11.34
2019-05-16T09:17:12.038Z,11.41
2019-05-16T09:19:41.707Z,11.46
2019-05-16T09:22:12.131Z,11.44
2019-05-16T09:24:41.777Z,11.49
2019-05-16T09:27:13.120Z,11.48
2019-05-16T09:29:43.137Z,11.60
2019-05-16T09:32:17.968Z,11.66
2019-05-16T09:34:44.210Z,11.78
2019-05-16T09:37:13.858Z,11.91
2019-05-16T09:39:43.479Z,12.09
2019-05-16T09:42:13.121Z,12.11
2019-05-16T09:44:42.758Z,12.21
2019-05-16T09:47:12.455Z,12.28
2019-05-16T09:49:42.079Z,12.42
2019-05-16T09:52:11.722Z,12.53
2019-05-16T09:54:41.341Z,12.52
2019-05-16T09:57:10.995Z,12.57
2019-05-16T09:59:40.610Z,12.62
2019-05-16T10:02:10.491Z,12.60
2019-05-16T10:04:40.115Z,12.64
2019-05-16T10:07:09.802Z,12.67
2019-05-16T10:09:44.887Z,12.68
2019-05-16T10:12:15.236Z,12.64
2019-05-16T10:14:42.337Z,12.66
2019-05-16T10:17:11.952Z,12.60
2019-05-16T10:19:41.593Z,12.62
2019-05-16T10:22:11.312Z,12.73
2019-05-16T10:24:40.950Z,12.82
2019-05-16T10:27:10.573Z,12.93
2019-05-16T10:29:40.253Z,12.96
2019-05-16T10:32:09.898Z,12.98
2019-05-16T10:34:39.517Z,12.98
2019-05-16T10:37:09.242Z,13.09
2019-05-16T10:39:38.929Z,13.11
2019-05-16T10:42:23.465Z,13.16
2019-05-16T10:44:39.973Z,13.33
2019-05-16T10:47:09.643Z,13.47
2019-05-16T10:49:41.795Z,13.51
2019-05-16T10:52:10.611Z,13.57
2019-05-16T10:54:54.105Z,13.70
2019-05-16T10:57:11.689Z,13.90
2019-05-16T11:00:06.680Z,13.92
2019-05-16T11:02:12.762Z,14.04
2019-05-16T11:04:53.948Z,14.11
2019-05-16T11:07:13.811Z,14.23
2019-05-16T11:09:54.943Z,14.37
2019-05-16T11:12:19.931Z,14.46
2019-05-16T11:14:47.787Z,14.52
2019-05-16T11:17:19.058Z,14.62
2019-05-16T11:19:48.936Z,14.51
2019-05-16T11:22:18.558Z,14.55
2019-05-16T11:24:48.177Z,14.67
2019-05-16T11:27:17.822Z,14.82
2019-05-16T11:29:47.449Z,14.91
2019-05-16T11:32:17.097Z,14.79
2019-05-16T11:34:47.941Z,14.82
2019-05-16T11:37:17.882Z,14.83
2019-05-16T11:39:47.788Z,14.80
2019-05-16T11:42:17.759Z,14.81
2019-05-16T11:44:47.968Z,14.95
2019-05-16T11:47:17.868Z,15.04
2019-05-16T11:49:47.789Z,15.14
2019-05-16T11:52:17.990Z,15.15
2019-05-16T11:54:47.897Z,15.35
2019-05-16T11:57:18.041Z,15.46
2019-05-16T11:59:47.825Z,15.80
2019-05-16T12:02:17.691Z,16.17
2019-05-16T12:04:47.463Z,16.63
2019-05-16T12:07:19.024Z,16.74
2019-05-16T12:09:55.233Z,16.39
2019-05-16T12:12:20.932Z,16.51
2019-05-16T12:14:50.704Z,16.46
2019-05-16T12:17:20.386Z,16.40
2019-05-16T12:19:52.784Z,16.36
2019-05-16T12:22:21.419Z,16.36
2019-05-16T12:24:51.042Z,16.37
2019-05-16T12:27:20.710Z,16.36
2019-05-16T12:29:54.931Z,16.19
2019-05-16T12:32:21.701Z,15.98
2019-05-16T12:34:51.330Z,15.93
2019-05-16T12:37:21.043Z,15.74
2019-05-16T12:39:50.688Z,15.73
2019-05-16T12:42:20.476Z,15.58
2019-05-16T12:44:50.103Z,15.39
2019-05-16T12:47:19.853Z,15.52
2019-05-16T12:49:49.496Z,15.67
2019-05-16T12:52:19.125Z,15.51
2019-05-16T12:54:48.779Z,15.44
2019-05-16T12:57:18.647Z,15.57
2019-05-16T12:59:51.934Z,15.71
2019-05-16T13:02:21.746Z,15.86
2019-05-16T13:04:51.398Z,16.05
2019-05-16T13:07:21.028Z,15.89
2019-05-16T13:09:50.649Z,15.78
2019-05-16T13:12:20.296Z,15.88
2019-05-16T13:14:49.913Z,16.07
2019-05-16T13:17:19.554Z,16.12
2019-05-16T13:19:49.181Z,16.06
2019-05-16T13:22:18.894Z,15.98
2019-05-16T13:24:48.653Z,15.87
2019-05-16T13:27:22.844Z,15.79
2019-05-16T13:29:49.790Z,16.10
2019-05-16T13:32:19.481Z,16.16
2019-05-16T13:34:49.113Z,15.97
2019-05-16T13:37:18.741Z,15.93
2019-05-16T13:39:48.386Z,16.07
2019-05-16T13:42:18.010Z,16.17
2019-05-16T13:44:47.656Z,16.26
2019-05-16T13:47:17.543Z,16.28
2019-05-16T13:49:47.167Z,16.33
2019-05-16T13:52:16.867Z,16.33
2019-05-16T13:54:46.582Z,16.32
2019-05-16T13:57:17.187Z,16.31
2019-05-16T13:59:47.070Z,16.23
2019-05-16T14:02:17.421Z,16.27
2019-05-16T14:04:47.293Z,16.36
2019-05-16T14:07:17.308Z,16.42
2019-05-16T14:09:47.363Z,16.46
2019-05-16T14:12:17.743Z,16.42
2019-05-16T14:14:47.965Z,16.43
2019-05-16T14:17:18.079Z,16.38
2019-05-16T14:19:48.163Z,16.41
2019-05-16T14:22:18.091Z,16.43
2019-05-16T14:24:48.319Z,16.35
2019-05-16T14:27:18.163Z,16.39
2019-05-16T14:29:47.874Z,16.26
2019-05-16T14:32:19.798Z,16.10
2019-05-16T14:34:51.518Z,16.14
2019-05-16T14:37:20.299Z,16.17
2019-05-16T14:39:49.921Z,16.12
2019-05-16T14:42:19.762Z,16.17
2019-05-16T14:45:04.661Z,16.23
2019-05-16T14:47:20.726Z,16.08
2019-05-16T14:49:50.375Z,15.99
2019-05-16T14:52:19.999Z,16.01
2019-05-16T14:54:49.644Z,15.95
2019-05-16T14:57:19.379Z,15.98
2019-05-16T14:59:49.026Z,16.00
2019-05-16T15:02:18.653Z,15.92
2019-05-16T15:04:49.631Z,15.90
2019-05-16T15:07:19.725Z,15.89
2019-05-16T15:09:49.479Z,15.99
2019-05-16T15:12:19.101Z,15.81
2019-05-16T15:14:48.741Z,15.67
2019-05-16T15:17:18.371Z,15.90
2019-05-16T15:19:48.038Z,15.72
2019-05-16T15:22:17.659Z,15.69
2019-05-16T15:24:47.363Z,15.70
2019-05-16T15:27:17.196Z,15.75
2019-05-16T15:29:48.137Z,15.76
2019-05-16T15:32:18.262Z,15.74
2019-05-16T15:34:47.994Z,15.76
2019-05-16T15:37:17.691Z,15.86
2019-05-16T15:39:47.742Z,15.86
2019-05-16T15:42:18.219Z,15.82
2019-05-16T15:44:48.021Z,15.78
2019-05-16T15:47:17.812Z,15.82
2019-05-16T15:49:47.882Z,15.80
2019-05-16T15:52:19.158Z,15.78
2019-05-16T15:54:51.013Z,15.77
2019-05-16T15:57:20.638Z,15.80
2019-05-16T15:59:50.282Z,15.78
2019-05-16T16:02:19.921Z,15.74
2019-05-16T16:04:49.566Z,15.70
2019-05-16T16:07:19.279Z,15.68
2019-05-16T16:09:48.929Z,15.59
2019-05-16T16:12:18.549Z,15.53
2019-05-16T16:14:48.182Z,15.52
2019-05-16T16:17:17.873Z,15.53
2019-05-16T16:19:47.716Z,15.53
2019-05-16T16:22:17.866Z,15.52
2019-05-16T16:24:48.031Z,15.39
2019-05-16T16:27:17.779Z,15.30
2019-05-16T16:29:48.029Z,15.29
2019-05-16T16:32:20.824Z,15.28
2019-05-16T16:34:50.684Z,15.29
2019-05-16T16:37:20.568Z,15.28
2019-05-16T16:39:50.304Z,15.26
2019-05-16T16:42:20.197Z,15.28
2019-05-16T16:44:50.033Z,15.20
2019-05-16T16:47:20.245Z,15.14
2019-05-16T16:49:50.131Z,15.11
2019-05-16T16:52:20.047Z,15.09
2019-05-16T16:54:49.922Z,15.06
2019-05-16T16:57:19.850Z,15.07
2019-05-16T16:59:49.832Z,15.05
2019-05-16T17:02:19.958Z,15.02
2019-05-16T17:04:51.508Z,15.00
2019-05-16T17:07:21.451Z,15.23
2019-05-16T17:09:51.207Z,15.13
2019-05-16T17:12:22.371Z,15.04
2019-05-16T17:14:52.187Z,14.98
2019-05-16T17:17:21.888Z,14.92
2019-05-16T17:19:56.659Z,14.87
2019-05-16T17:22:26.580Z,14.88
2019-05-16T17:24:56.814Z,14.89
2019-05-16T17:27:27.004Z,14.92
2019-05-16T17:29:58.846Z,14.98
2019-05-16T17:32:28.220Z,14.99
2019-05-16T17:34:57.841Z,14.96
2019-05-16T17:37:27.504Z,14.89
2019-05-16T17:39:57.147Z,14.79
2019-05-16T17:42:27.260Z,14.74
2019-05-16T17:44:57.567Z,14.68
2019-05-16T17:47:27.404Z,14.65
2019-05-16T17:49:57.281Z,14.64
2019-05-16T17:52:27.581Z,14.58
2019-05-16T17:54:57.384Z,14.53
2019-05-16T17:57:27.551Z,14.48
2019-05-16T17:59:57.569Z,14.45
2019-05-16T18:02:27.477Z,14.45
2019-05-16T18:04:57.286Z,14.45
2019-05-16T18:07:27.069Z,14.43
2019-05-16T18:09:57.038Z,14.42
2019-05-16T18:12:27.499Z,14.40
2019-05-16T18:14:59.913Z,14.36
2019-05-16T18:17:29.629Z,14.34
2019-05-16T18:19:59.999Z,14.30
2019-05-16T18:22:29.973Z,14.31
2019-05-16T18:25:00.161Z,14.27
2019-05-16T18:27:29.926Z,14.25
2019-05-16T18:30:01.420Z,14.23
2019-05-16T18:32:31.339Z,14.23
2019-05-16T18:35:01.390Z,14.22
2019-05-16T18:37:33.389Z,14.20
2019-05-16T18:40:07.235Z,14.22
2019-05-16T18:42:37.014Z,14.15
2019-05-16T18:45:10.675Z,14.16
2019-05-16T18:47:40.505Z,14.12
2019-05-16T18:50:11.161Z,14.09
2019-05-16T18:52:40.979Z,14.07
2019-05-16T18:55:11.007Z,14.04
2019-05-16T18:57:40.646Z,14.05
2019-05-16T19:00:12.965Z,14.00
2019-05-16T19:02:43.106Z,13.96
2019-05-16T19:05:13.768Z,13.95
2019-05-16T19:07:43.492Z,13.93
2019-05-16T19:10:13.410Z,13.90
2019-05-16T19:12:43.060Z,13.87
2019-05-16T19:15:13.122Z,13.82
2019-05-16T19:17:42.764Z,13.85
2019-05-16T19:20:12.698Z,13.87
2019-05-16T19:22:42.346Z,13.79
2019-05-16T19:25:12.982Z,13.77
2019-05-16T19:27:42.763Z,13.75
2019-05-16T19:30:13.490Z,13.71
2019-05-16T19:32:43.223Z,13.69
2019-05-16T19:35:13.546Z,13.74
2019-05-16T19:37:43.190Z,13.70
2019-05-16T19:40:13.718Z,13.64
2019-05-16T19:42:43.362Z,13.62
2019-05-16T19:45:14.418Z,13.63
2019-05-16T19:47:44.060Z,13.60
2019-05-16T19:50:14.813Z,13.59
2019-05-16T19:52:47.006Z,13.60
2019-05-16T19:55:16.336Z,13.60
2019-05-16T19:57:46.638Z,13.73
2019-05-16T20:00:18.391Z,13.80
2019-05-16T20:05:59.117Z,13.59
2019-05-16T20:08:28.829Z,13.46
2019-05-16T20:10:58.458Z,13.44
2019-05-16T20:13:28.168Z,13.38
2019-05-16T20:15:57.795Z,13.40
2019-05-16T20:18:27.624Z,13.36
2019-05-16T20:20:57.319Z,13.38
2019-05-16T20:23:27.589Z,13.39
2019-05-16T20:25:57.470Z,13.35
2019-05-16T20:28:27.187Z,13.33
2019-05-16T20:30:59.809Z,13.32
2019-05-16T20:33:28.263Z,13.36
2019-05-16T20:35:57.912Z,13.39
2019-05-16T20:38:27.565Z,13.33
2019-05-16T20:40:59.832Z,13.33
2019-05-16T20:43:29.022Z,13.32
2019-05-16T20:46:00.425Z,13.29
2019-05-16T20:48:29.996Z,13.29
2019-05-16T20:51:07.582Z,13.28
2019-05-16T20:53:37.636Z,13.26
2019-05-16T20:56:07.501Z,13.28
2019-05-16T20:58:37.153Z,13.25
2019-05-16T21:01:07.192Z,13.22
2019-05-16T21:03:37.880Z,13.24
2019-05-16T21:06:08.638Z,13.27
2019-05-16T21:08:38.601Z,13.22
2019-05-16T21:11:08.308Z,13.24
2019-05-16T21:13:37.928Z,13.20
2019-05-16T21:16:07.648Z,13.23
2019-05-16T21:18:37.840Z,13.22
2019-05-16T21:21:07.917Z,13.16
2019-05-16T21:23:37.645Z,13.15
2019-05-16T21:26:07.366Z,13.16
2019-05-16T21:28:37.070Z,13.16
2019-05-16T21:31:07.496Z,13.16
2019-05-16T21:33:37.581Z,13.07
2019-05-16T21:36:07.411Z,13.05
2019-05-16T21:38:37.158Z,13.04
2019-05-16T21:41:07.399Z,13.03
2019-05-16T21:43:37.767Z,13.05
2019-05-16T21:46:07.781Z,13.04
2019-05-16T21:48:37.399Z,13.01
2019-05-16T21:51:07.869Z,13.04
2019-05-16T21:53:37.866Z,13.05
2019-05-16T21:56:07.607Z,12.99
2019-05-16T21:58:37.340Z,12.97
2019-05-16T22:01:11.718Z,12.94
2019-05-16T22:03:40.555Z,12.89
2019-05-16T22:06:10.202Z,12.85
2019-05-16T22:08:39.854Z,12.81
2019-05-16T22:11:09.620Z,12.81
2019-05-16T22:13:39.344Z,12.83
2019-05-16T22:16:09.248Z,12.86
2019-05-16T22:18:38.964Z,12.84
2019-05-16T22:21:08.998Z,12.82
2019-05-16T22:23:38.795Z,12.81
2019-05-16T22:26:08.496Z,12.74
2019-05-16T22:28:38.189Z,12.74
2019-05-16T22:31:07.838Z,12.73
2019-05-16T22:33:37.670Z,12.73
2019-05-16T22:36:07.522Z,12.73
2019-05-16T22:38:37.150Z,12.75
2019-05-16T22:41:07.984Z,12.74
2019-05-16T22:43:38.223Z,12.69
2019-05-16T22:46:10.047Z,12.62
2019-05-16T22:48:39.373Z,12.57
2019-05-16T22:51:08.991Z,12.54
2019-05-16T22:53:38.643Z,12.48
2019-05-16T22:56:08.400Z,12.46
2019-05-16T22:58:38.051Z,12.46
2019-05-16T23:01:08.318Z,12.44
2019-05-16T23:03:38.183Z,12.42
2019-05-16T23:06:08.026Z,12.44
2019-05-16T23:08:37.708Z,12.42
2019-05-16T23:11:07.635Z,12.39
2019-05-16T23:13:37.424Z,12.32
2019-05-16T23:16:07.052Z,12.30
2019-05-16T23:18:37.537Z,12.29
2019-05-16T23:21:07.396Z,12.23
2019-05-16T23:23:37.356Z,12.19
2019-05-16T23:26:07.119Z,12.18
2019-05-16T23:28:36.973Z,12.18
2019-05-16T23:31:07.126Z,12.31
2019-05-16T23:33:36.775Z,12.10
2019-05-16T23:36:07.275Z,12.13
2019-05-16T23:38:37.125Z,12.01
2019-05-16T23:41:07.131Z,11.96
2019-05-16T23:43:37.547Z,12.04
2019-05-16T23:46:07.499Z,11.95
2019-05-16T23:48:37.221Z,11.88
2019-05-16T23:51:07.861Z,11.83
2019-05-16T23:53:37.750Z,11.80
2019-05-16T23:56:07.688Z,11.79
2019-05-16T23:58:37.508Z,11.72
